Pep, New Mexico
Current Conditions -  °F | °C
As of 5:58 AM on Wednesday 26 Nov 2014 (Local Time) from KCVS Reporting Station
Clear Clear  
Wind Chill: 30°   Ceiling: Unl
Heat Index: 39°   Visibility: 10mi
Dew Point: 19°   Wind: 16mph
Humidity: 44%   Direction: 360°N
Pressure: 30.18"   Gusts: NA
Location:  33.84°N, 103.34°W
Report Text: KCVS 261258Z AUTO 36014KT 10SM CLR 04/M07 A3018 RMK AO2 SLP210 T00391073 $
Loading
Personal Weather Stations






























Interactive Weather Map New forecast layout! Learn more

10-Day Weather Forecast

Advertisements
Track Severe Weather on mobile